sensor_id;sensor_type;location;lat;lon;timestamp;P1;P2;P0
48155;PMS5003;35568;48.104;11.782;2023-01-19T00:00:30;14;14;
48155;PMS5003;35568;48.104;11.782;2023-01-19T00:02:57;17;15;
48155;PMS5003;35568;48.104;11.782;2023-01-19T00:05:24;16;15;
48155;PMS5003;35568;48.104;11.782;2023-01-19T00:07:51;17;16;
48155;PMS5003;35568;48.104;11.782;2023-01-19T00:10:18;15;13;
48155;PMS5003;35568;48.104;11.782;2023-01-19T00:12:45;17;16;
48155;PMS5003;35568;48.104;11.782;2023-01-19T00:15:12;13;12;
48155;PMS5003;35568;48.104;11.782;2023-01-19T00:17:39;17;16;
48155;PMS5003;35568;48.104;11.782;2023-01-19T00:20:07;20;18;
48155;PMS5003;35568;48.104;11.782;2023-01-19T00:22:35;15;15;
48155;PMS5003;35568;48.104;11.782;2023-01-19T00:25:02;15;14;
48155;PMS5003;35568;48.104;11.782;2023-01-19T00:27:29;16;14;
48155;PMS5003;35568;48.104;11.782;2023-01-19T00:29:55;14;14;
48155;PMS5003;35568;48.104;11.782;2023-01-19T00:32:22;14;13;
48155;PMS5003;35568;48.104;11.782;2023-01-19T00:34:50;17;15;
48155;PMS5003;35568;48.104;11.782;2023-01-19T00:37:16;15;13;
48155;PMS5003;35568;48.104;11.782;2023-01-19T00:39:43;15;15;
48155;PMS5003;35568;48.104;11.782;2023-01-19T00:42:10;17;17;
48155;PMS5003;35568;48.104;11.782;2023-01-19T00:44:38;15;15;
48155;PMS5003;35568;48.104;11.782;2023-01-19T00:47:05;18;16;
48155;PMS5003;35568;48.104;11.782;2023-01-19T00:49:32;16;16;
48155;PMS5003;35568;48.104;11.782;2023-01-19T00:51:59;15;15;
48155;PMS5003;35568;48.104;11.782;2023-01-19T00:54:26;15;15;
48155;PMS5003;35568;48.104;11.782;2023-01-19T00:56:53;17;17;
48155;PMS5003;35568;48.104;11.782;2023-01-19T00:59:20;15;14;
48155;PMS5003;35568;48.104;11.782;2023-01-19T01:01:46;16;15;
48155;PMS5003;35568;48.104;11.782;2023-01-19T01:04:13;14;14;
48155;PMS5003;35568;48.104;11.782;2023-01-19T01:06:40;17;16;
48155;PMS5003;35568;48.104;11.782;2023-01-19T01:09:07;15;15;
48155;PMS5003;35568;48.104;11.782;2023-01-19T01:11:34;16;15;
48155;PMS5003;35568;48.104;11.782;2023-01-19T01:14:01;16;16;
48155;PMS5003;35568;48.104;11.782;2023-01-19T01:16:27;17;15;
48155;PMS5003;35568;48.104;11.782;2023-01-19T01:18:55;14;14;
48155;PMS5003;35568;48.104;11.782;2023-01-19T01:21:22;17;16;
48155;PMS5003;35568;48.104;11.782;2023-01-19T01:23:49;17;17;
48155;PMS5003;35568;48.104;11.782;2023-01-19T01:26:16;15;14;
48155;PMS5003;35568;48.104;11.782;2023-01-19T01:28:43;15;15;
48155;PMS5003;35568;48.104;11.782;2023-01-19T01:31:10;14;12;
48155;PMS5003;35568;48.104;11.782;2023-01-19T01:33:37;18;17;
48155;PMS5003;35568;48.104;11.782;2023-01-19T01:36:05;15;14;
48155;PMS5003;35568;48.104;11.782;2023-01-19T01:38:32;15;15;
48155;PMS5003;35568;48.104;11.782;2023-01-19T01:40:59;17;17;
48155;PMS5003;35568;48.104;11.782;2023-01-19T01:43:39;14;13;
48155;PMS5003;35568;48.104;11.782;2023-01-19T01:46:08;16;13;
48155;PMS5003;35568;48.104;11.782;2023-01-19T01:48:35;15;14;
48155;PMS5003;35568;48.104;11.782;2023-01-19T01:51:05;14;14;
48155;PMS5003;35568;48.104;11.782;2023-01-19T01:53:37;15;14;
48155;PMS5003;35568;48.104;11.782;2023-01-19T01:56:07;18;18;
48155;PMS5003;35568;48.104;11.782;2023-01-19T01:58:39;13;13;
48155;PMS5003;35568;48.104;11.782;2023-01-19T02:01:06;16;16;
48155;PMS5003;35568;48.104;11.782;2023-01-19T02:03:33;17;15;
48155;PMS5003;35568;48.104;11.782;2023-01-19T02:06:00;15;14;
48155;PMS5003;35568;48.104;11.782;2023-01-19T02:08:31;13;13;
48155;PMS5003;35568;48.104;11.782;2023-01-19T02:11:02;17;15;
48155;PMS5003;35568;48.104;11.782;2023-01-19T02:13:30;14;14;
48155;PMS5003;35568;48.104;11.782;2023-01-19T02:16:01;16;15;
48155;PMS5003;35568;48.104;11.782;2023-01-19T02:18:31;12;12;
48155;PMS5003;35568;48.104;11.782;2023-01-19T02:21:02;15;15;
48155;PMS5003;35568;48.104;11.782;2023-01-19T02:23:36;17;16;
48155;PMS5003;35568;48.104;11.782;2023-01-19T02:26:07;14;14;
48155;PMS5003;35568;48.104;11.782;2023-01-19T02:28:36;16;16;
48155;PMS5003;35568;48.104;11.782;2023-01-19T02:31:07;13;12;
48155;PMS5003;35568;48.104;11.782;2023-01-19T02:33:34;16;15;
48155;PMS5003;35568;48.104;11.782;2023-01-19T02:36:02;17;16;
48155;PMS5003;35568;48.104;11.782;2023-01-19T02:38:31;14;14;
48155;PMS5003;35568;48.104;11.782;2023-01-19T02:41:00;16;15;
48155;PMS5003;35568;48.104;11.782;2023-01-19T02:43:31;14;14;
48155;PMS5003;35568;48.104;11.782;2023-01-19T02:45:59;13;13;
48155;PMS5003;35568;48.104;11.782;2023-01-19T02:48:28;17;16;
48155;PMS5003;35568;48.104;11.782;2023-01-19T02:50:55;17;16;
48155;PMS5003;35568;48.104;11.782;2023-01-19T02:53:32;20;18;
48155;PMS5003;35568;48.104;11.782;2023-01-19T02:56:14;17;16;
48155;PMS5003;35568;48.104;11.782;2023-01-19T02:58:55;22;20;
48155;PMS5003;35568;48.104;11.782;2023-01-19T03:01:29;16;14;
48155;PMS5003;35568;48.104;11.782;2023-01-19T03:04:08;16;16;
48155;PMS5003;35568;48.104;11.782;2023-01-19T03:06:41;16;15;
48155;PMS5003;35568;48.104;11.782;2023-01-19T03:09:13;14;14;
48155;PMS5003;35568;48.104;11.782;2023-01-19T03:11:53;16;15;
48155;PMS5003;35568;48.104;11.782;2023-01-19T03:14:27;14;14;
48155;PMS5003;35568;48.104;11.782;2023-01-19T03:16:56;14;14;
48155;PMS5003;35568;48.104;11.782;2023-01-19T03:19:27;16;15;
48155;PMS5003;35568;48.104;11.782;2023-01-19T03:22:02;18;17;
48155;PMS5003;35568;48.104;11.782;2023-01-19T03:24:33;12;12;
48155;PMS5003;35568;48.104;11.782;2023-01-19T03:27:05;16;15;
48155;PMS5003;35568;48.104;11.782;2023-01-19T03:29:36;16;16;
48155;PMS5003;35568;48.104;11.782;2023-01-19T03:34:31;13;13;
48155;PMS5003;35568;48.104;11.782;2023-01-19T03:37:03;14;13;
48155;PMS5003;35568;48.104;11.782;2023-01-19T03:39:33;14;13;
48155;PMS5003;35568;48.104;11.782;2023-01-19T03:42:00;12;12;
48155;PMS5003;35568;48.104;11.782;2023-01-19T03:44:31;11;11;
48155;PMS5003;35568;48.104;11.782;2023-01-19T03:47:01;9;9;
48155;PMS5003;35568;48.104;11.782;2023-01-19T03:49:29;14;13;
48155;PMS5003;35568;48.104;11.782;2023-01-19T03:51:58;12;12;
48155;PMS5003;35568;48.104;11.782;2023-01-19T03:54:25;11;11;
48155;PMS5003;35568;48.104;11.782;2023-01-19T03:56:52;11;11;
48155;PMS5003;35568;48.104;11.782;2023-01-19T03:59:19;13;13;
48155;PMS5003;35568;48.104;11.782;2023-01-19T04:03:01;11;11;
48155;PMS5003;35568;48.104;11.782;2023-01-19T04:05:28;8;8;
48155;PMS5003;35568;48.104;11.782;2023-01-19T04:07:56;9;9;
48155;PMS5003;35568;48.104;11.782;2023-01-19T04:10:24;9;9;
48155;PMS5003;35568;48.104;11.782;2023-01-19T04:12:55;11;10;
48155;PMS5003;35568;48.104;11.782;2023-01-19T04:15:22;9;8;
48155;PMS5003;35568;48.104;11.782;2023-01-19T04:17:50;11;9;
48155;PMS5003;35568;48.104;11.782;2023-01-19T04:20:17;7;7;
48155;PMS5003;35568;48.104;11.782;2023-01-19T04:22:44;9;9;
48155;PMS5003;35568;48.104;11.782;2023-01-19T04:25:11;11;9;
48155;PMS5003;35568;48.104;11.782;2023-01-19T04:27:38;13;11;
48155;PMS5003;35568;48.104;11.782;2023-01-19T04:30:07;15;14;
48155;PMS5003;35568;48.104;11.782;2023-01-19T04:32:35;9;8;
48155;PMS5003;35568;48.104;11.782;2023-01-19T04:35:02;17;15;
48155;PMS5003;35568;48.104;11.782;2023-01-19T04:37:30;12;11;
48155;PMS5003;35568;48.104;11.782;2023-01-19T04:39:57;16;15;
48155;PMS5003;35568;48.104;11.782;2023-01-19T04:42:24;13;13;
48155;PMS5003;35568;48.104;11.782;2023-01-19T04:44:51;15;15;
48155;PMS5003;35568;48.104;11.782;2023-01-19T04:47:18;14;13;
48155;PMS5003;35568;48.104;11.782;2023-01-19T04:49:44;16;14;
48155;PMS5003;35568;48.104;11.782;2023-01-19T04:52:11;17;17;
48155;PMS5003;35568;48.104;11.782;2023-01-19T04:54:38;12;12;
48155;PMS5003;35568;48.104;11.782;2023-01-19T04:57:05;15;14;
48155;PMS5003;35568;48.104;11.782;2023-01-19T04:59:31;14;14;
48155;PMS5003;35568;48.104;11.782;2023-01-19T05:01:58;14;13;
48155;PMS5003;35568;48.104;11.782;2023-01-19T05:04:25;14;13;
48155;PMS5003;35568;48.104;11.782;2023-01-19T05:06:52;14;13;
48155;PMS5003;35568;48.104;11.782;2023-01-19T05:09:19;15;15;
48155;PMS5003;35568;48.104;11.782;2023-01-19T05:11:46;16;16;
48155;PMS5003;35568;48.104;11.782;2023-01-19T05:14:13;15;14;
48155;PMS5003;35568;48.104;11.782;2023-01-19T05:16:40;14;13;
48155;PMS5003;35568;48.104;11.782;2023-01-19T05:19:07;13;13;
48155;PMS5003;35568;48.104;11.782;2023-01-19T05:21:34;16;16;
48155;PMS5003;35568;48.104;11.782;2023-01-19T05:24:01;16;16;
48155;PMS5003;35568;48.104;11.782;2023-01-19T05:26:28;15;15;
48155;PMS5003;35568;48.104;11.782;2023-01-19T05:28:55;15;14;
48155;PMS5003;35568;48.104;11.782;2023-01-19T05:31:21;17;16;
48155;PMS5003;35568;48.104;11.782;2023-01-19T05:33:48;15;15;
48155;PMS5003;35568;48.104;11.782;2023-01-19T05:36:15;15;15;
48155;PMS5003;35568;48.104;11.782;2023-01-19T05:38:42;17;17;
48155;PMS5003;35568;48.104;11.782;2023-01-19T05:41:09;22;18;
48155;PMS5003;35568;48.104;11.782;2023-01-19T05:43:35;18;18;
48155;PMS5003;35568;48.104;11.782;2023-01-19T05:46:03;19;18;
48155;PMS5003;35568;48.104;11.782;2023-01-19T05:48:30;17;16;
48155;PMS5003;35568;48.104;11.782;2023-01-19T05:50:57;19;17;
48155;PMS5003;35568;48.104;11.782;2023-01-19T05:53:25;18;17;
48155;PMS5003;35568;48.104;11.782;2023-01-19T05:55:53;15;15;
48155;PMS5003;35568;48.104;11.782;2023-01-19T05:58:25;17;16;
48155;PMS5003;35568;48.104;11.782;2023-01-19T06:00:52;15;15;
48155;PMS5003;35568;48.104;11.782;2023-01-19T06:03:19;18;16;
48155;PMS5003;35568;48.104;11.782;2023-01-19T06:05:46;18;17;
48155;PMS5003;35568;48.104;11.782;2023-01-19T06:08:13;21;20;
48155;PMS5003;35568;48.104;11.782;2023-01-19T06:10:40;18;17;
48155;PMS5003;35568;48.104;11.782;2023-01-19T06:13:07;18;18;
48155;PMS5003;35568;48.104;11.782;2023-01-19T06:15:33;22;21;
48155;PMS5003;35568;48.104;11.782;2023-01-19T06:18:00;23;23;
48155;PMS5003;35568;48.104;11.782;2023-01-19T06:20:28;22;20;
48155;PMS5003;35568;48.104;11.782;2023-01-19T06:22:55;18;17;
48155;PMS5003;35568;48.104;11.782;2023-01-19T06:25:22;17;17;
48155;PMS5003;35568;48.104;11.782;2023-01-19T06:27:49;20;18;
48155;PMS5003;35568;48.104;11.782;2023-01-19T06:30:16;16;16;
48155;PMS5003;35568;48.104;11.782;2023-01-19T06:32:44;15;15;
48155;PMS5003;35568;48.104;11.782;2023-01-19T06:35:11;20;18;
48155;PMS5003;35568;48.104;11.782;2023-01-19T06:37:39;22;18;
48155;PMS5003;35568;48.104;11.782;2023-01-19T06:40:07;22;17;
48155;PMS5003;35568;48.104;11.782;2023-01-19T06:42:35;20;18;
48155;PMS5003;35568;48.104;11.782;2023-01-19T06:45:01;23;21;
48155;PMS5003;35568;48.104;11.782;2023-01-19T06:47:29;23;22;
48155;PMS5003;35568;48.104;11.782;2023-01-19T06:49:55;21;17;
48155;PMS5003;35568;48.104;11.782;2023-01-19T06:52:23;21;20;
48155;PMS5003;35568;48.104;11.782;2023-01-19T06:54:50;20;20;
48155;PMS5003;35568;48.104;11.782;2023-01-19T06:57:16;17;16;
48155;PMS5003;35568;48.104;11.782;2023-01-19T06:59:43;21;20;
48155;PMS5003;35568;48.104;11.782;2023-01-19T07:02:10;23;22;
48155;PMS5003;35568;48.104;11.782;2023-01-19T07:04:37;21;19;
48155;PMS5003;35568;48.104;11.782;2023-01-19T07:07:04;25;24;
48155;PMS5003;35568;48.104;11.782;2023-01-19T07:09:30;23;22;
48155;PMS5003;35568;48.104;11.782;2023-01-19T07:11:57;18;18;
48155;PMS5003;35568;48.104;11.782;2023-01-19T07:14:25;24;23;
48155;PMS5003;35568;48.104;11.782;2023-01-19T07:16:53;20;18;
48155;PMS5003;35568;48.104;11.782;2023-01-19T07:19:19;21;20;
48155;PMS5003;35568;48.104;11.782;2023-01-19T07:21:46;22;20;
48155;PMS5003;35568;48.104;11.782;2023-01-19T07:24:13;23;23;
48155;PMS5003;35568;48.104;11.782;2023-01-19T07:26:41;34;32;
48155;PMS5003;35568;48.104;11.782;2023-01-19T07:29:08;32;27;
48155;PMS5003;35568;48.104;11.782;2023-01-19T07:31:36;32;28;
48155;PMS5003;35568;48.104;11.782;2023-01-19T07:34:05;24;24;
48155;PMS5003;35568;48.104;11.782;2023-01-19T07:36:33;26;24;
48155;PMS5003;35568;48.104;11.782;2023-01-19T07:39:00;24;24;
48155;PMS5003;35568;48.104;11.782;2023-01-19T07:41:27;23;22;
48155;PMS5003;35568;48.104;11.782;2023-01-19T07:43:53;24;22;
48155;PMS5003;35568;48.104;11.782;2023-01-19T07:46:20;25;23;
48155;PMS5003;35568;48.104;11.782;2023-01-19T07:48:47;18;18;
48155;PMS5003;35568;48.104;11.782;2023-01-19T07:51:15;20;20;
48155;PMS5003;35568;48.104;11.782;2023-01-19T07:53:42;21;21;
48155;PMS5003;35568;48.104;11.782;2023-01-19T07:56:09;19;19;
48155;PMS5003;35568;48.104;11.782;2023-01-19T07:58:37;20;18;
48155;PMS5003;35568;48.104;11.782;2023-01-19T08:01:05;18;18;
48155;PMS5003;35568;48.104;11.782;2023-01-19T08:03:39;21;21;
48155;PMS5003;35568;48.104;11.782;2023-01-19T08:06:09;22;20;
48155;PMS5003;35568;48.104;11.782;2023-01-19T08:08:44;23;21;
48155;PMS5003;35568;48.104;11.782;2023-01-19T08:11:11;20;20;
48155;PMS5003;35568;48.104;11.782;2023-01-19T08:13:38;18;16;
48155;PMS5003;35568;48.104;11.782;2023-01-19T08:16:06;18;18;
48155;PMS5003;35568;48.104;11.782;2023-01-19T08:18:33;20;18;
48155;PMS5003;35568;48.104;11.782;2023-01-19T08:21:27;18;18;
48155;PMS5003;35568;48.104;11.782;2023-01-19T08:23:55;19;18;
48155;PMS5003;35568;48.104;11.782;2023-01-19T08:26:25;21;18;
48155;PMS5003;35568;48.104;11.782;2023-01-19T08:28:54;16;16;
48155;PMS5003;35568;48.104;11.782;2023-01-19T08:31:23;23;21;
48155;PMS5003;35568;48.104;11.782;2023-01-19T08:33:52;23;18;
48155;PMS5003;35568;48.104;11.782;2023-01-19T08:36:18;23;21;
48155;PMS5003;35568;48.104;11.782;2023-01-19T08:38:46;25;20;
48155;PMS5003;35568;48.104;11.782;2023-01-19T08:41:14;20;19;
48155;PMS5003;35568;48.104;11.782;2023-01-19T08:43:41;17;16;
48155;PMS5003;35568;48.104;11.782;2023-01-19T08:46:09;23;23;
48155;PMS5003;35568;48.104;11.782;2023-01-19T08:48:36;18;18;
48155;PMS5003;35568;48.104;11.782;2023-01-19T08:51:03;19;18;
48155;PMS5003;35568;48.104;11.782;2023-01-19T08:53:30;20;18;
48155;PMS5003;35568;48.104;11.782;2023-01-19T08:55:57;19;18;
48155;PMS5003;35568;48.104;11.782;2023-01-19T08:58:24;20;19;
48155;PMS5003;35568;48.104;11.782;2023-01-19T09:00:51;18;17;
48155;PMS5003;35568;48.104;11.782;2023-01-19T09:03:19;19;18;
48155;PMS5003;35568;48.104;11.782;2023-01-19T09:05:46;23;21;
48155;PMS5003;35568;48.104;11.782;2023-01-19T09:08:14;20;19;
48155;PMS5003;35568;48.104;11.782;2023-01-19T09:10:44;15;15;
48155;PMS5003;35568;48.104;11.782;2023-01-19T09:13:12;17;16;
48155;PMS5003;35568;48.104;11.782;2023-01-19T09:15:39;17;17;
48155;PMS5003;35568;48.104;11.782;2023-01-19T09:18:09;17;17;
48155;PMS5003;35568;48.104;11.782;2023-01-19T09:20:37;14;14;
48155;PMS5003;35568;48.104;11.782;2023-01-19T09:23:05;16;15;
48155;PMS5003;35568;48.104;11.782;2023-01-19T09:25:32;17;16;
48155;PMS5003;35568;48.104;11.782;2023-01-19T09:27:59;16;15;
48155;PMS5003;35568;48.104;11.782;2023-01-19T09:30:26;18;18;
48155;PMS5003;35568;48.104;11.782;2023-01-19T09:32:53;16;16;
48155;PMS5003;35568;48.104;11.782;2023-01-19T09:35:20;18;17;
48155;PMS5003;35568;48.104;11.782;2023-01-19T09:37:47;16;15;
48155;PMS5003;35568;48.104;11.782;2023-01-19T09:40:15;16;16;
48155;PMS5003;35568;48.104;11.782;2023-01-19T09:42:47;19;19;
48155;PMS5003;35568;48.104;11.782;2023-01-19T09:45:20;15;15;
48155;PMS5003;35568;48.104;11.782;2023-01-19T09:47:52;20;19;
48155;PMS5003;35568;48.104;11.782;2023-01-19T09:50:24;15;14;
48155;PMS5003;35568;48.104;11.782;2023-01-19T09:52:54;15;14;
48155;PMS5003;35568;48.104;11.782;2023-01-19T09:55:24;15;15;
48155;PMS5003;35568;48.104;11.782;2023-01-19T09:57:52;12;12;
48155;PMS5003;35568;48.104;11.782;2023-01-19T10:00:20;12;12;
48155;PMS5003;35568;48.104;11.782;2023-01-19T10:02:48;16;14;
48155;PMS5003;35568;48.104;11.782;2023-01-19T10:05:23;23;20;
48155;PMS5003;35568;48.104;11.782;2023-01-19T10:07:57;14;14;
48155;PMS5003;35568;48.104;11.782;2023-01-19T10:10:34;15;12;
48155;PMS5003;35568;48.104;11.782;2023-01-19T10:13:15;16;15;
48155;PMS5003;35568;48.104;11.782;2023-01-19T10:15:52;15;15;
48155;PMS5003;35568;48.104;11.782;2023-01-19T10:18:29;11;11;
48155;PMS5003;35568;48.104;11.782;2023-01-19T10:21:08;16;15;
48155;PMS5003;35568;48.104;11.782;2023-01-19T10:23:40;16;14;
48155;PMS5003;35568;48.104;11.782;2023-01-19T10:26:11;16;16;
48155;PMS5003;35568;48.104;11.782;2023-01-19T10:28:41;15;14;
48155;PMS5003;35568;48.104;11.782;2023-01-19T10:31:10;16;15;
48155;PMS5003;35568;48.104;11.782;2023-01-19T10:33:38;17;16;
48155;PMS5003;35568;48.104;11.782;2023-01-19T10:36:09;15;13;
48155;PMS5003;35568;48.104;11.782;2023-01-19T10:38:43;15;15;
48155;PMS5003;35568;48.104;11.782;2023-01-19T10:41:12;20;19;
48155;PMS5003;35568;48.104;11.782;2023-01-19T10:43:43;16;14;
48155;PMS5003;35568;48.104;11.782;2023-01-19T10:46:21;14;14;
48155;PMS5003;35568;48.104;11.782;2023-01-19T10:48:58;17;15;
48155;PMS5003;35568;48.104;11.782;2023-01-19T10:51:25;14;14;
48155;PMS5003;35568;48.104;11.782;2023-01-19T10:53:54;15;14;
48155;PMS5003;35568;48.104;11.782;2023-01-19T10:56:24;12;12;
48155;PMS5003;35568;48.104;11.782;2023-01-19T10:58:53;10;9;
48155;PMS5003;35568;48.104;11.782;2023-01-19T11:01:21;13;12;
48155;PMS5003;35568;48.104;11.782;2023-01-19T11:03:50;13;13;
48155;PMS5003;35568;48.104;11.782;2023-01-19T11:06:21;13;13;
48155;PMS5003;35568;48.104;11.782;2023-01-19T11:08:50;13;13;
48155;PMS5003;35568;48.104;11.782;2023-01-19T11:11:18;11;11;
48155;PMS5003;35568;48.104;11.782;2023-01-19T11:14:01;10;10;
48155;PMS5003;35568;48.104;11.782;2023-01-19T11:16:32;13;13;
48155;PMS5003;35568;48.104;11.782;2023-01-19T11:19:00;10;10;
48155;PMS5003;35568;48.104;11.782;2023-01-19T11:21:28;11;10;
48155;PMS5003;35568;48.104;11.782;2023-01-19T11:23:58;12;11;
48155;PMS5003;35568;48.104;11.782;2023-01-19T11:26:28;13;12;
48155;PMS5003;35568;48.104;11.782;2023-01-19T11:28:59;13;12;
48155;PMS5003;35568;48.104;11.782;2023-01-19T11:31:29;18;14;
48155;PMS5003;35568;48.104;11.782;2023-01-19T11:34:00;12;11;
48155;PMS5003;35568;48.104;11.782;2023-01-19T11:36:30;11;11;
48155;PMS5003;35568;48.104;11.782;2023-01-19T11:38:58;12;11;
48155;PMS5003;35568;48.104;11.782;2023-01-19T11:41:38;12;11;
48155;PMS5003;35568;48.104;11.782;2023-01-19T11:44:08;15;13;
48155;PMS5003;35568;48.104;11.782;2023-01-19T11:46:40;12;11;
48155;PMS5003;35568;48.104;11.782;2023-01-19T11:49:11;10;9;
48155;PMS5003;35568;48.104;11.782;2023-01-19T11:51:48;10;10;
48155;PMS5003;35568;48.104;11.782;2023-01-19T11:54:22;10;10;
48155;PMS5003;35568;48.104;11.782;2023-01-19T11:56:55;12;11;
48155;PMS5003;35568;48.104;11.782;2023-01-19T11:59:25;8;8;
48155;PMS5003;35568;48.104;11.782;2023-01-19T12:01:54;10;10;
48155;PMS5003;35568;48.104;11.782;2023-01-19T12:04:25;8;8;
48155;PMS5003;35568;48.104;11.782;2023-01-19T12:06:56;10;10;
48155;PMS5003;35568;48.104;11.782;2023-01-19T12:09:26;11;11;
48155;PMS5003;35568;48.104;11.782;2023-01-19T12:11:57;9;9;
48155;PMS5003;35568;48.104;11.782;2023-01-19T12:14:30;10;9;
48155;PMS5003;35568;48.104;11.782;2023-01-19T12:17:02;12;12;
48155;PMS5003;35568;48.104;11.782;2023-01-19T12:19:34;11;11;
48155;PMS5003;35568;48.104;11.782;2023-01-19T12:22:10;13;12;
48155;PMS5003;35568;48.104;11.782;2023-01-19T12:24:43;10;10;
48155;PMS5003;35568;48.104;11.782;2023-01-19T12:27:16;21;20;
48155;PMS5003;35568;48.104;11.782;2023-01-19T12:29:48;14;13;
48155;PMS5003;35568;48.104;11.782;2023-01-19T12:32:17;10;10;
48155;PMS5003;35568;48.104;11.782;2023-01-19T12:34:56;12;11;
48155;PMS5003;35568;48.104;11.782;2023-01-19T12:37:33;12;12;
48155;PMS5003;35568;48.104;11.782;2023-01-19T12:40:12;10;10;
48155;PMS5003;35568;48.104;11.782;2023-01-19T12:42:46;12;11;
48155;PMS5003;35568;48.104;11.782;2023-01-19T12:45:21;12;11;
48155;PMS5003;35568;48.104;11.782;2023-01-19T12:47:49;9;9;
48155;PMS5003;35568;48.104;11.782;2023-01-19T12:50:16;7;6;
48155;PMS5003;35568;48.104;11.782;2023-01-19T12:52:46;10;9;
48155;PMS5003;35568;48.104;11.782;2023-01-19T12:55:19;9;8;
48155;PMS5003;35568;48.104;11.782;2023-01-19T12:57:50;10;10;
48155;PMS5003;35568;48.104;11.782;2023-01-19T13:00:31;6;6;
48155;PMS5003;35568;48.104;11.782;2023-01-19T13:03:00;7;7;
48155;PMS5003;35568;48.104;11.782;2023-01-19T13:05:47;7;7;
48155;PMS5003;35568;48.104;11.782;2023-01-19T13:08:17;6;6;
48155;PMS5003;35568;48.104;11.782;2023-01-19T13:11:20;10;10;
48155;PMS5003;35568;48.104;11.782;2023-01-19T13:14:32;8;8;
48155;PMS5003;35568;48.104;11.782;2023-01-19T13:17:10;6;6;
48155;PMS5003;35568;48.104;11.782;2023-01-19T13:20:03;5;4;
48155;PMS5003;35568;48.104;11.782;2023-01-19T13:22:48;3;3;
48155;PMS5003;35568;48.104;11.782;2023-01-19T13:25:42;3;3;
48155;PMS5003;35568;48.104;11.782;2023-01-19T13:28:15;3;3;
48155;PMS5003;35568;48.104;11.782;2023-01-19T13:30:49;2;2;
48155;PMS5003;35568;48.104;11.782;2023-01-19T13:33:21;3;3;
48155;PMS5003;35568;48.104;11.782;2023-01-19T13:35:51;2;2;
48155;PMS5003;35568;48.104;11.782;2023-01-19T13:38:22;2;2;
48155;PMS5003;35568;48.104;11.782;2023-01-19T13:40:49;3;3;
48155;PMS5003;35568;48.104;11.782;2023-01-19T13:43:18;6;5;
48155;PMS5003;35568;48.104;11.782;2023-01-19T13:45:50;5;5;
48155;PMS5003;35568;48.104;11.782;2023-01-19T13:48:18;6;5;
48155;PMS5003;35568;48.104;11.782;2023-01-19T13:51:02;4;3;
48155;PMS5003;35568;48.104;11.782;2023-01-19T13:53:30;4;4;
48155;PMS5003;35568;48.104;11.782;2023-01-19T13:56:07;6;5;
48155;PMS5003;35568;48.104;11.782;2023-01-19T13:58:41;5;5;
48155;PMS5003;35568;48.104;11.782;2023-01-19T14:01:18;3;3;
48155;PMS5003;35568;48.104;11.782;2023-01-19T14:03:46;3;3;
48155;PMS5003;35568;48.104;11.782;2023-01-19T14:06:19;4;3;
48155;PMS5003;35568;48.104;11.782;2023-01-19T14:09:03;5;5;
48155;PMS5003;35568;48.104;11.782;2023-01-19T14:11:32;7;7;
48155;PMS5003;35568;48.104;11.782;2023-01-19T14:13:59;4;4;
48155;PMS5003;35568;48.104;11.782;2023-01-19T14:16:26;4;4;
48155;PMS5003;35568;48.104;11.782;2023-01-19T14:18:57;4;4;
48155;PMS5003;35568;48.104;11.782;2023-01-19T14:21:35;4;4;
48155;PMS5003;35568;48.104;11.782;2023-01-19T14:24:05;4;4;
48155;PMS5003;35568;48.104;11.782;2023-01-19T14:26:37;5;5;
48155;PMS5003;35568;48.104;11.782;2023-01-19T14:29:06;6;6;
48155;PMS5003;35568;48.104;11.782;2023-01-19T14:31:43;5;5;
48155;PMS5003;35568;48.104;11.782;2023-01-19T14:34:28;7;7;
48155;PMS5003;35568;48.104;11.782;2023-01-19T14:36:56;7;5;
48155;PMS5003;35568;48.104;11.782;2023-01-19T14:39:24;8;7;
48155;PMS5003;35568;48.104;11.782;2023-01-19T14:41:53;6;6;
48155;PMS5003;35568;48.104;11.782;2023-01-19T14:44:25;7;6;
48155;PMS5003;35568;48.104;11.782;2023-01-19T14:46:56;7;6;
48155;PMS5003;35568;48.104;11.782;2023-01-19T14:49:26;5;5;
48155;PMS5003;35568;48.104;11.782;2023-01-19T14:51:57;7;7;
48155;PMS5003;35568;48.104;11.782;2023-01-19T14:54:26;6;5;
48155;PMS5003;35568;48.104;11.782;2023-01-19T14:56:56;6;6;
48155;PMS5003;35568;48.104;11.782;2023-01-19T14:59:24;9;9;
48155;PMS5003;35568;48.104;11.782;2023-01-19T15:01:51;6;6;
48155;PMS5003;35568;48.104;11.782;2023-01-19T15:04:18;7;7;
48155;PMS5003;35568;48.104;11.782;2023-01-19T15:06:44;7;6;
48155;PMS5003;35568;48.104;11.782;2023-01-19T15:09:12;6;6;
48155;PMS5003;35568;48.104;11.782;2023-01-19T15:11:39;6;6;
48155;PMS5003;35568;48.104;11.782;2023-01-19T15:14:07;6;6;
48155;PMS5003;35568;48.104;11.782;2023-01-19T15:16:37;7;7;
48155;PMS5003;35568;48.104;11.782;2023-01-19T15:19:04;8;8;
48155;PMS5003;35568;48.104;11.782;2023-01-19T15:21:31;6;6;
48155;PMS5003;35568;48.104;11.782;2023-01-19T15:23:57;7;7;
48155;PMS5003;35568;48.104;11.782;2023-01-19T15:26:25;8;8;
48155;PMS5003;35568;48.104;11.782;2023-01-19T15:28:52;8;8;
48155;PMS5003;35568;48.104;11.782;2023-01-19T15:31:22;7;6;
48155;PMS5003;35568;48.104;11.782;2023-01-19T15:33:51;8;8;
48155;PMS5003;35568;48.104;11.782;2023-01-19T15:36:18;8;8;
48155;PMS5003;35568;48.104;11.782;2023-01-19T15:38:47;9;7;
48155;PMS5003;35568;48.104;11.782;2023-01-19T15:41:15;8;8;
48155;PMS5003;35568;48.104;11.782;2023-01-19T15:43:46;8;8;
48155;PMS5003;35568;48.104;11.782;2023-01-19T15:46:13;9;8;
48155;PMS5003;35568;48.104;11.782;2023-01-19T15:48:41;7;7;
48155;PMS5003;35568;48.104;11.782;2023-01-19T15:51:10;8;8;
48155;PMS5003;35568;48.104;11.782;2023-01-19T15:53:39;5;5;
48155;PMS5003;35568;48.104;11.782;2023-01-19T15:56:10;6;5;
48155;PMS5003;35568;48.104;11.782;2023-01-19T15:58:40;4;4;
48155;PMS5003;35568;48.104;11.782;2023-01-19T16:01:09;7;7;
48155;PMS5003;35568;48.104;11.782;2023-01-19T16:03:38;7;6;
48155;PMS5003;35568;48.104;11.782;2023-01-19T16:06:05;5;5;
48155;PMS5003;35568;48.104;11.782;2023-01-19T16:08:32;6;5;
48155;PMS5003;35568;48.104;11.782;2023-01-19T16:11:01;5;4;
48155;PMS5003;35568;48.104;11.782;2023-01-19T16:13:29;6;6;
48155;PMS5003;35568;48.104;11.782;2023-01-19T16:15:59;6;6;
48155;PMS5003;35568;48.104;11.782;2023-01-19T16:18:27;7;7;
48155;PMS5003;35568;48.104;11.782;2023-01-19T16:20:53;11;10;
48155;PMS5003;35568;48.104;11.782;2023-01-19T16:23:21;8;8;
48155;PMS5003;35568;48.104;11.782;2023-01-19T16:25:53;9;8;
48155;PMS5003;35568;48.104;11.782;2023-01-19T16:28:21;9;9;